• Join FlightAware (Why Join?)
  • Login
  • US Flag 
10:45PM EST


 

Airport Tracker/Info


-or-


 

Live Flight TrackerFlight Track Log ✈ TCF3494 ✈ 27-Sep-2013 ✈ KIAD - KDFW

Flight Track Log - Related Links

Times and Time Zones

All times are in EDT time to prevent confusion due to time zone crossing. See the TCF3494 flight status page for this flight to view local times or setup timezone preferences in your user account.

Time Position Orientation Groundspeed Altitude Reporting Facility
EDT Latitude Longitude Course Direction KTS MPH feet Rate Location/Type
12:53PM 38.9333 -77.5500 256° West 190 219 2,600  Level Potomac TRACON
12:55PM 38.8587 -77.8845 288° West  Level Estimated
12:55PM 38.8969 -77.7042 253° West 276 318 6,600  Level Washington Center
12:56PM 38.8288 -78.0257 270° West  Level Estimated
12:56PM 38.8581 -77.7803 237° Southwest 276 318 8,900  Level Washington Center
12:57PM 38.8380 -78.1716 275° West  Level FlightAware Approximate
12:57PM 38.8064 -77.8667 233° Southwest 301 346 11,000  Level Washington Center
12:58PM 38.8074 -78.3126 256° West  Level Estimated
12:58PM 38.7917 -77.9833 261° West 301 346 13,000  Level Washington Center
12:59PM 38.7767 -78.4535 256° West  Level Estimated
12:59PM 38.8206 -78.0964 288° West 300 345 15,100  Level Washington Center
01:00PM 38.8139 -78.2211 266° West 329 379 17,000 1,680 Climbing Washington Center
01:01PM 38.8006 -78.3486 262° West 342 394 18,500 1,320 Climbing Washington Center
01:02PM 38.7897 -78.4522 262° West 363 418 19,700 1,440 Climbing Washington Center
01:03PM 38.7756 -78.6114 264° West 374 430 21,500 1,860 Climbing Washington Center
01:04PM 38.7594 -78.7439 261° West 380 437 23,400 1,860 Climbing Washington Center
01:05PM 38.7453 -78.8842 263° West 391 450 25,300 1,620 Climbing Washington Center
01:06PM 38.7311 -79.0247 263° West 391 450 26,700 1,320 Climbing Washington Center
01:07PM 38.7164 -79.1678 263° West 403 464 28,000 1,200 Climbing Washington Center
01:08PM 38.7017 -79.3081 262° West 428 493 29,100 1,080 Climbing Washington Center
01:09PM 38.6783 -79.4558 259° West 433 498 30,300 960 Climbing Washington Center
01:10PM 38.6525 -79.6058 258° West 433 498 31,100 960 Climbing Washington Center
01:11PM 38.6217 -79.7769 257° West 442 509 32,200 1,020 Climbing Washington Center
01:12PM 38.5933 -79.9294 257° West 447 514 33,200 840 Climbing Washington Center
01:13PM 38.5647 -80.0819 257° West 447 514 34,000 780 Climbing Washington Center
01:15PM 38.5153 -80.3389 256° West 447 514 35,400 660 Climbing Indianapolis Center
01:16PM 38.4850 -80.5039 257° West 437 503 36,000 240 Climbing Indianapolis Center
01:17PM 38.4564 -80.6603 257° West 448 516 36,000  Level Indianapolis Center
01:18PM 38.4269 -80.8172 257° West 454 522 36,000  Level Indianapolis Center
01:19PM 38.3958 -80.9736 256° West 453 521 36,000  Level Indianapolis Center
01:20PM 38.3642 -81.1317 256° West 456 525 36,000  Level Indianapolis Center
01:21PM 38.3258 -81.2864 253° West 455 524 36,000  Level Indianapolis Center
01:22PM 38.2817 -81.4711 253° West 451 519 36,000  Level Indianapolis Center
01:23PM 38.2444 -81.6242 253° West 451 519 36,000  Level Indianapolis Center
01:24PM 38.2053 -81.7753 252° West 449 517 36,000  Level Indianapolis Center
01:25PM 38.1622 -81.9269 250° West 452 520 36,000  Level Indianapolis Center
01:26PM 38.1186 -82.0783 250° West 455 524 36,000  Level Indianapolis Center
01:27PM 38.0700 -82.2525 251° West 458 527 36,000  Level Indianapolis Center
01:28PM 38.0267 -82.4039 250° West 459 528 36,000  Level Indianapolis Center
01:29PM 37.9839 -82.5556 250° West 458 527 36,000  Level Indianapolis Center
01:30PM 37.9394 -82.7069 250° West 460 529 36,000  Level Indianapolis Center
01:32PM 37.8964 -82.8581 250° West 458 527 36,000  Level Indianapolis Center
01:33PM 37.8511 -83.0092 249° West 459 528 36,000  Level Indianapolis Center
01:34PM 37.7986 -83.1825 249° West 455 524 36,000  Level Indianapolis Center
01:35PM 37.7533 -83.3325 249° West 455 524 36,000  Level Indianapolis Center
01:36PM 37.7106 -83.4808 250° West 453 521 36,000  Level Indianapolis Center
01:37PM 37.6672 -83.6286 250° West 451 519 36,000  Level Indianapolis Center
01:38PM 37.6253 -83.7786 251° West 454 522 36,000  Level Indianapolis Center
01:39PM 37.5731 -83.9511 249° West 453 521 36,000  Level Indianapolis Center
01:40PM 37.5286 -84.1008 250° West 456 525 36,000  Level Indianapolis Center
01:41PM 37.4861 -84.2475 250° West 450 518 36,000  Level Indianapolis Center
01:42PM 37.4397 -84.3950 248° West 454 522 36,000  Level Indianapolis Center
01:43PM 37.3925 -84.5417 248° West 453 521 36,000  Level Indianapolis Center
01:44PM 37.3378 -84.7111 248° West 450 518 36,000  Level Indianapolis Center
01:45PM 37.2925 -84.8581 249° West 452 520 36,000  Level Indianapolis Center
01:46PM 37.2467 -85.0044 249° West 450 518 36,000  Level Indianapolis Center
01:47PM 37.2003 -85.1506 248° West 450 518 36,000  Level Indianapolis Center
01:48PM 37.1644 -85.2997 253° West 448 516 36,000  Level Indianapolis Center
01:49PM 37.1189 -85.4736 252° West 450 518 36,000  Level Indianapolis Center
01:50PM 37.0833 -85.6261 254° West 448 516 36,000  Level Indianapolis Center
01:51PM 37.0458 -85.7744 252° West 445 512 36,000  Level Indianapolis Center
01:52PM 37.0083 -85.9228 252° West 446 513 36,000  Level Indianapolis Center
01:53PM 36.9714 -86.0719 253° West 445 512 36,000  Level Indianapolis Center
01:54PM 36.9342 -86.2181 252° West 441 507 36,000  Level Indianapolis Center
01:55PM 36.8967 -86.3647 252° West 441 507 36,000  Level Indianapolis Center
01:56PM 36.8589 -86.5111 252° West 440 506 36,000  Level Indianapolis Center
01:57PM 36.8153 -86.6797 252° West 436 502 36,000  Level Indianapolis Center
01:58PM 36.7783 -86.8239 252° West 436 502 36,000  Level Indianapolis Center
01:59PM 36.7397 -86.9689 252° West 439 505 36,000  Level Indianapolis Center
02:00PM 36.7019 -87.1131 252° West 438 504 36,000  Level Indianapolis Center
02:02PM 36.6564 -87.2919 252° West 448 516 36,000  Level Memphis Center
02:03PM 36.6161 -87.4358 251° West 448 516 36,000  Level Memphis Center
02:04PM 36.5650 -87.5694 245° Southwest 448 516 36,000  Level Memphis Center
02:05PM 36.5117 -87.7081 244° Southwest 442 509 36,000  Level Memphis Center
02:06PM 36.4603 -87.8439 245° Southwest 442 509 36,000  Level Memphis Center
02:07PM 36.4067 -87.9794 244° Southwest 442 509 36,000  Level Memphis Center
02:08PM 36.3550 -88.1125 244° Southwest 442 509 36,000  Level Memphis Center
02:09PM 36.3011 -88.2478 244° Southwest 437 503 36,000  Level Memphis Center
02:10PM 36.2469 -88.3806 243° Southwest 432 497 36,000  Level Memphis Center
02:11PM 36.1950 -88.5156 245° Southwest 432 497 36,000  Level Memphis Center
02:12PM 36.1428 -88.6531 245° Southwest 432 497 36,000  Level Memphis Center
02:13PM 36.0881 -88.7878 243° Southwest 432 497 36,000  Level Memphis Center
02:14PM 36.0333 -88.9197 243° Southwest 432 497 36,000  Level Memphis Center
02:15PM 35.9786 -89.0567 244° Southwest 432 497 36,000  Level Memphis Center
02:16PM 35.9258 -89.1906 244° Southwest 432 497 36,000  Level Memphis Center
02:17PM 35.8728 -89.3247 244° Southwest 432 497 36,000  Level Memphis Center
02:18PM 35.8175 -89.4611 243° Southwest 432 497 36,000  Level Memphis Center
02:19PM 35.7664 -89.5919 244° Southwest 432 497 36,000  Level Memphis Center
02:20PM 35.7108 -89.7256 243° Southwest 432 497 36,000  Level Memphis Center
02:21PM 35.6675 -89.8458 246° West 426 490 36,000  Level Memphis Center
02:22PM 35.6139 -89.9792 244° Southwest 426 490 36,000  Level Memphis Center
02:23PM 35.5600 -90.1119 244° Southwest 426 490 36,000  Level Memphis Center
02:24PM 35.5039 -90.2475 243° Southwest 431 496 36,000  Level Memphis Center
02:25PM 35.4497 -90.3800 243° Southwest 436 502 36,000  Level Memphis Center
02:26PM 35.3889 -90.5253 243° Southwest 436 502 36,000  Level Memphis Center
02:27PM 35.3325 -90.6625 243° Southwest 442 509 36,000  Level Memphis Center
02:28PM 35.2758 -90.7944 242° Southwest 447 514 36,000  Level Memphis Center
02:29PM 35.2189 -90.9264 242° Southwest 447 514 36,000  Level Memphis Center
02:30PM 35.1681 -91.0606 245° Southwest 440 506 36,000  Level Memphis Center
02:31PM 35.1069 -91.1947 241° Southwest 445 512 36,000  Level Memphis Center
02:32PM 35.0494 -91.3261 242° Southwest 445 512 36,000  Level Memphis Center
02:33PM 34.9964 -91.4419 241° Southwest 440 506 36,000  Level Memphis Center
02:34PM 34.9389 -91.5756 242° Southwest 440 506 36,000  Level Memphis Center
02:35PM 34.8789 -91.7267 244° Southwest 440 506 36,000  Level Memphis Center
02:36PM 34.8211 -91.8419 239° Southwest 440 506 36,000  Level Memphis Center
02:37PM 34.7653 -91.9750 243° Southwest 446 513 36,000  Level Memphis Center
02:38PM 34.7114 -92.1028 243° Southwest 441 507 36,000  Level Memphis Center
02:39PM 34.6594 -92.2406 245° Southwest 441 507 36,000  Level Memphis Center
02:40PM 34.6239 -92.3811 253° West 446 513 36,000  Level Memphis Center
02:41PM 34.5881 -92.5217 253° West 446 513 36,000  Level Memphis Center
02:42PM 34.5500 -92.6619 252° West 441 507 36,000  Level Memphis Center
02:43PM 34.5119 -92.8069 252° West 441 507 36,000  Level Memphis Center
02:44PM 34.4736 -92.9494 252° West 443 510 36,000  Level Memphis Center
02:45PM 34.4372 -93.0819 252° West 443 510 36,000  Level Memphis Center
02:46PM 34.3942 -93.2367 251° West 438 504 36,000  Level Memphis Center
02:47PM 34.3575 -93.3761 252° West 438 504 36,000  Level Memphis Center
02:47PM 34.3406 -93.4547 255° West 447 514 36,000  Level Fort Worth Center
02:48PM 34.2989 -93.5950 250° West 455 524 36,000  Level Fort Worth Center
02:49PM 34.2633 -93.7322 253° West 449 517 36,000  Level Fort Worth Center
02:50PM 34.2217 -93.8747 251° West 444 511 36,000  Level Fort Worth Center
02:51PM 34.1858 -94.0117 252° West 444 511 36,000 -240 Level Fort Worth Center
02:52PM 34.1456 -94.1511 251° West 444 511 35,600 -840 Descending Fort Worth Center
02:53PM 34.1075 -94.2931 252° West 449 517 34,400 -1,200 Descending Fort Worth Center
02:54PM 34.0631 -94.4400 250° West 454 522 33,200 -1,200 Descending Fort Worth Center
02:55PM 34.0164 -94.5844 249° West 460 529 32,000 -1,260 Descending Fort Worth Center
02:56PM 33.9692 -94.7239 248° West 460 529 30,700 -1,260 Descending Fort Worth Center
02:57PM 33.9203 -94.8706 248° West 460 529 29,500 -1,260 Descending Fort Worth Center
02:58PM 33.8689 -95.0169 247° West 466 536 28,200 -1,260 Descending Fort Worth Center
02:59PM 33.8194 -95.1633 248° West 471 542 27,000 -1,260 Descending Fort Worth Center
03:00PM 33.7717 -95.3044 248° West 472 543 25,700 -1,560 Descending Fort Worth Center
03:01PM 33.7281 -95.4356 248° West 450 518 23,900 -1,800 Descending Fort Worth Center
03:02PM 33.6881 -95.5636 249° West 437 503 22,100 -1,740 Descending Fort Worth Center
03:03PM 33.6481 -95.6817 248° West 427 491 20,500 -1,620 Descending Fort Worth Center
03:04PM 33.6039 -95.8025 246° West 415 478 18,900 -1,740 Descending Fort Worth Center
03:05PM 33.5594 -95.9328 248° West 398 458 17,100 -1,620 Descending Fort Worth Center
03:06PM 33.5211 -96.0481 248° West 386 444 15,700 -1,560 Descending Fort Worth Center
03:07PM 33.4806 -96.1633 247° West 380 437 14,000 -1,500 Descending Fort Worth Center
03:08PM 33.4439 -96.2683 247° West 368 423 12,800 -1,320 Descending Fort Worth Center
03:09PM 33.4156 -96.3583 249° West 311 358 11,500 -1,320 Descending Fort Worth Center
03:10PM 33.3667 -96.4333 232° Southwest 286 329 10,400 -1,200 Descending Dallas / Fort Worth TRACON
03:11PM 33.3167 -96.5000 228° Southwest 280 322 9,200 -1,200 Descending Dallas / Fort Worth TRACON
03:12PM 33.2833 -96.5833 244° Southwest 278 320 8,000 -1,200 Descending Dallas / Fort Worth TRACON
03:13PM 33.2500 -96.6500 239° Southwest 270 311 7,000 -1,140 Descending Dallas / Fort Worth TRACON
03:14PM 33.2200 -96.7431 249° West 270 311 5,800 -960 Descending Fort Worth Center
03:15PM 33.1953 -96.8178 248° West 270 311 5,000 -780 Descending Fort Worth Center
03:16PM 33.1433 -96.8875 228° Southwest 270 311 4,300 -1,020 Descending Fort Worth Center
03:17PM 33.0997 -96.9447 228° Southwest 265 305 3,000 -660 Descending Fort Worth Center
03:18PM 33.0500 -97.0000 223° Southwest 218 251 3,000 -420 Level Dallas / Fort Worth TRACON
03:19PM 33.0000 -97.0167 196° South 174 200 2,200 -900 Descending Dallas / Fort Worth TRACON
03:20PM 32.9500 -97.0167 180° South 119 137 1,400 -720 Descending Dallas / Fort Worth TRACON
03:21PM 32.9167 -97.0167 180° South 123 142 800 -600 Descending Dallas / Fort Worth TRACON